Ana Sayfa
METAR-TAF:

METAR-TAF

Havaalanları :

Hanover County Municipal Airport

Richmond / Ashland, Virginia, Amerika Birleşik Devletleri

Enlem: 37-42-29N, Boylam: 077-26-04W, yükseklik: 62 m

Güncel hava durumu gözlemi

Rapor saat 19:54 UTC de 26 dakika önce yapıldı.
Rüzgar güney/güneybatıdan 12 kt ve 20 kt'a kadar ani rüzgarlar
Sıcaklık 36°C
Nem 39%
Basınç 1014 hPa
Görüş mesafesi: 16.1 km
6500 ft yükseklikte az bulutlu

METAR: KOFP 171954Z AUTO 21012G20KT 10SM FEW065 36/20 A2994 RMK AO2 SLP136 T03560200

Saat: 16:20 (20:20 UTC)


TAF: eksik

4.000'den fazla havaalanı için hava durumu gözlemleri ve tahminleri (METAR ve TAF raporları).

Kullanılabilir istasyonlar harita üzerinde sarı ve kırmızı noktalarla gösterilir.

İstasyonun adını görmek için fareyi noktanın üzerinde gezdirin.

Sonrasında hava gözlem ve tahminlerini görmek için tıklayın.

Haritayı değiştirmek için: yaklaştırmak için siyah artı işaretli yeşil düğmeye ve uzaklaştırmak için de eksi işaretli düğmeye hızla tıklayın; bitişik haritalar için yeşil okları kullanın.


METAR-TAF: